Detalii statie PETRESTI PETRESTI [0000197D]

Toti senzorii

Date Temperatura solului [C]Precipitatii [mm]Voltaj baterie [mV]Leaf Wetness [Min]HC Air temperature [C]HC Relative humidity [%]Punctul de roua [C]
medieminmaxsumaultimatimpmedieminmaxmediemediemin
2020-01-21 22:00:00 0 6278 -1.32 -1.4 -1.25 0 0 0
2020-01-21 23:00:00 0 6278 -1.4 -1.48 -1.3 0 0 0
2020-01-22 00:00:00 0 6278 -1.16 -1.41 -1.02 0 0 0
2020-01-22 01:00:00 0 6250 -0.91 -0.98 -0.87 0 0 0
2020-01-22 02:00:00 0 6250 -0.85 -0.91 -0.83 0 0 0
2020-01-22 03:00:00 0 6278 -1.09 -1.22 -0.94 0 0 0
2020-01-22 04:00:00 0 6250 -1.52 -1.76 -1.24 0 0 0
2020-01-22 05:00:00 0 6278 -1.58 -1.7 -1.41 0 0 0
2020-01-22 06:00:00 0 6250 -1.35 -1.41 -1.3 0 0 0
2020-01-22 07:00:00 0 6278 -1.36 -1.42 -1.31 0 0 0
2020-01-22 08:00:00 0 6278 -1.2 -1.25 -1.15 0 0 0
2020-01-22 09:00:00 0 6240 -1.19 -1.23 -1.15 0 0 0
2020-01-22 10:00:00 0 6278 -1.15 -1.27 -1.07 0 0 0
2020-01-22 11:00:00 0 6258 -0.91 -1.06 -0.79 0 0 0
2020-01-22 12:00:00 0 6268 -0.66 -0.8 -0.52 0 0 0
2020-01-22 13:00:00 0 6268 -0.52 -0.58 -0.44 0 0 0
2020-01-22 14:00:00 0 6288 -0.63 -0.77 -0.49 0 0 0
2020-01-22 15:00:00 0 6278 -0.67 -0.74 -0.59 0 0 0
2020-01-22 16:00:00 0 6240 -0.74 -0.79 -0.7 0 0 0
2020-01-22 17:00:00 0 6240 -0.8 -0.86 -0.75 0 0 0
2020-01-22 18:00:00 0 6240 -0.92 -0.95 -0.89 0 0 0
2020-01-22 19:00:00 0 6268 -0.99 -1.03 -0.96 0 0 0
2020-01-22 20:00:00 0 6268 -1.03 -1.08 -1.01 0 0 0
2020-01-22 21:00:00 0 6240 -0.96 -1.01 -0.93 0 0 0
2020-01-22 22:00:00 0 6268 -0.93 -0.96 -0.91 0 0 0
2020-01-22 23:00:00 0 6240 -0.97 -1.02 -0.93 0 0 0
2020-01-23 00:00:00 0 6240 -1.01 -1.05 -0.97 0 0 0
2020-01-23 01:00:00 0 6230 -1.01 -1.04 -0.97 0 0 0
2020-01-23 02:00:00 0 6268 -0.98 -1.09 -0.88 0 0 0
2020-01-23 03:00:00 0 6230 -1.16 -1.6 -0.89 0 0 0
2020-01-23 04:00:00 0 6258 -1.61 -1.78 -1.42 0 0 0
2020-01-23 05:00:00 0 6230 -1.18 -1.36 -1 0 0 0
2020-01-23 06:00:00 0 6268 -1.14 -1.31 -0.94 0 0 0
2020-01-23 07:00:00 0 6258 -1.21 -1.33 -0.9 0 0 0
2020-01-23 08:00:00 0 6258 -1.33 -1.65 -0.82 0 0 0
2020-01-23 09:00:00 0 6230 -1.71 -2.95 0.01 0 0 0
2020-01-23 10:00:00 0 6250 -2.74 -3.08 -2.36 0 0 0
2020-01-23 11:00:00 0 6278 -1.63 -2.4 -0.76 0 0 0
2020-01-23 12:00:00 0 6318 -0.38 -1.03 0.27 0 0 0
2020-01-23 13:00:00 0 6386 1.13 0.35 1.64 0 0 0
2020-01-23 14:00:00 0 6552 2.59 1.65 3.48 0 0 0
2020-01-23 15:00:00 0 6582 3.6 3.3 3.84 0 0 0
2020-01-23 16:00:00 0 6522 3.55 3.21 4.11 0 0 0
2020-01-23 17:00:00 0 6424 2.3 1.18 3.17 0 0 0
2020-01-23 18:00:00 0 6406 0.25 -0.54 1.04 0 0 0
2020-01-23 19:00:00 0 6366 -0.84 -1.22 -0.41 0 0 0
2020-01-23 20:00:00 0 6376 -0.6 -0.96 -0.45 0 0 0
2020-01-23 21:00:00 0 6346 -1.53 -1.91 -1.21 0 0 0